KOJC/OJC METAR and TAF weather

Enter ICAO airport designator
Station Type Date Time Source
KOJC METAR 2020/09/20 10:53 UTC NOAA

KOJC 201053Z AUTO 15007KT 10SM CLR 11/09 A3024 RMK AO2 SLP235 T01110089


Station Type Date Time Source
KOJC Decoded METAR 2020/09/20 10:53 UTC NOAA

OLATHE JOHNSON CO EXECUTIVE, KS, United States (KOJC) 38-50N 94-44W 326M
Sep 20, 2020 - 06:53 AM EDT / 2020.09.20 1053 UTC
Wind: from the SSE (150 degrees) at 8 MPH (7 KT):0
Visibility: 10 mile(s):0
Sky conditions: clear
Temperature: 52.0 F (11.1 C)
Dew Point: 48.0 F (8.9 C)
Relative Humidity: 86%
Pressure (altimeter): 30.24 in. Hg (1024 hPa)
ob: KOJC 201053Z AUTO 15007KT 10SM CLR 11/09 A3024 RMK AO2 SLP235 T01110089
cycle: 11

Station Type Date Time Source
KOJC TAF UTC NOAA

Error!

Example: see airport list